createdAt,value
2017-08-23T00:00:05.578Z,9.13
2017-08-23T00:02:33.636Z,7.40
2017-08-23T00:05:01.304Z,11.00
2017-08-23T00:07:28.932Z,10.37
2017-08-23T00:09:56.565Z,6.30
2017-08-23T00:12:24.254Z,5.33
2017-08-23T00:14:51.928Z,5.53
2017-08-23T00:17:19.600Z,5.60
2017-08-23T00:19:47.286Z,6.10
2017-08-23T00:22:14.925Z,7.30
2017-08-23T00:24:42.568Z,6.40
2017-08-23T00:27:10.611Z,8.00
2017-08-23T00:29:38.418Z,7.97
2017-08-23T00:32:06.128Z,8.83
2017-08-23T00:34:33.779Z,8.30
2017-08-23T00:37:01.460Z,12.90
2017-08-23T00:39:29.111Z,8.30
2017-08-23T00:41:56.770Z,9.97
2017-08-23T00:44:24.416Z,9.70
2017-08-23T00:46:52.118Z,7.37
2017-08-23T00:49:19.796Z,8.60
2017-08-23T00:51:47.458Z,8.30
2017-08-23T00:54:15.104Z,6.40
2017-08-23T00:56:42.744Z,6.50
2017-08-23T00:59:10.431Z,7.60
2017-08-23T01:01:38.126Z,6.40
2017-08-23T01:04:05.905Z,8.70
2017-08-23T01:06:33.552Z,7.50
2017-08-23T01:09:01.208Z,5.97
2017-08-23T01:11:28.858Z,6.63
2017-08-23T01:13:56.501Z,7.40
2017-08-23T01:16:24.179Z,7.50
2017-08-23T01:18:51.823Z,11.40
2017-08-23T01:21:19.463Z,7.27
2017-08-23T01:23:47.101Z,6.60
2017-08-23T01:26:14.704Z,5.53
2017-08-23T01:28:42.404Z,7.63
2017-08-23T01:31:10.148Z,7.43
2017-08-23T01:33:37.863Z,8.93
2017-08-23T01:36:05.879Z,8.13
2017-08-23T01:38:33.551Z,7.80
2017-08-23T01:41:01.171Z,7.90
2017-08-23T01:43:28.870Z,7.70
2017-08-23T01:45:56.565Z,7.60
2017-08-23T01:48:24.240Z,9.80
2017-08-23T01:50:52.275Z,10.00
2017-08-23T01:53:19.907Z,12.47
2017-08-23T01:55:47.587Z,11.30
2017-08-23T01:58:15.237Z,11.00
2017-08-23T02:00:43.250Z,7.70
2017-08-23T02:03:11.334Z,6.97
2017-08-23T02:05:39.372Z,7.27
2017-08-23T02:08:07.013Z,8.47
2017-08-23T02:10:34.703Z,8.43
2017-08-23T02:13:02.417Z,10.27
2017-08-23T02:15:30.092Z,9.23
2017-08-23T02:17:57.738Z,8.07
2017-08-23T02:20:25.387Z,10.97
2017-08-23T02:22:53.233Z,10.83
2017-08-23T02:25:20.935Z,13.03
2017-08-23T02:27:48.613Z,12.00
2017-08-23T02:30:16.277Z,11.90
2017-08-23T02:32:43.940Z,13.63
2017-08-23T02:35:11.697Z,14.67
2017-08-23T02:37:40.354Z,14.30
2017-08-23T02:40:08.045Z,11.43
2017-08-23T02:42:35.733Z,11.90
2017-08-23T02:45:03.503Z,16.63
2017-08-23T02:47:31.176Z,18.30
2017-08-23T02:49:58.891Z,19.20
2017-08-23T02:52:26.573Z,18.43
2017-08-23T02:54:54.215Z,16.23
2017-08-23T02:57:21.935Z,17.67
2017-08-23T02:59:49.561Z,18.77
2017-08-23T03:02:17.211Z,21.80
2017-08-23T03:04:44.867Z,18.77
2017-08-23T03:07:12.615Z,17.30
2017-08-23T03:09:40.309Z,17.57
2017-08-23T03:12:07.995Z,13.67
2017-08-23T03:14:49.831Z,10.73
2017-08-23T03:17:17.538Z,10.97
2017-08-23T03:19:45.176Z,10.80
2017-08-23T03:22:12.810Z,9.77
2017-08-23T03:24:40.455Z,12.30
2017-08-23T03:27:08.222Z,14.20
2017-08-23T03:29:35.888Z,15.90
2017-08-23T03:32:03.552Z,17.53
2017-08-23T03:34:31.211Z,18.50
2017-08-23T03:36:58.887Z,16.43
2017-08-23T03:39:26.521Z,12.77
2017-08-23T03:41:54.346Z,11.93
2017-08-23T03:44:22.063Z,10.87
2017-08-23T03:46:49.747Z,11.83
2017-08-23T03:49:17.388Z,12.40
2017-08-23T03:51:45.056Z,13.83
2017-08-23T03:54:12.678Z,10.73
2017-08-23T03:56:40.339Z,11.00
2017-08-23T03:59:08.027Z,11.53
2017-08-23T04:01:35.692Z,12.07
2017-08-23T04:04:05.165Z,11.00
2017-08-23T04:06:32.799Z,12.20
2017-08-23T04:09:00.465Z,10.90
2017-08-23T04:11:28.244Z,12.10
2017-08-23T04:13:55.938Z,10.93
2017-08-23T04:16:23.584Z,14.10
2017-08-23T04:18:51.217Z,12.60
2017-08-23T04:21:18.924Z,30.43
2017-08-23T04:23:46.555Z,17.60
2017-08-23T04:26:14.207Z,13.33
2017-08-23T04:28:41.861Z,12.10
2017-08-23T04:31:09.783Z,13.47
2017-08-23T04:33:37.457Z,11.13
2017-08-23T04:36:05.551Z,12.33
2017-08-23T04:38:33.266Z,11.53
2017-08-23T04:43:32.922Z,11.40
2017-08-23T04:46:00.579Z,10.73
2017-08-23T04:48:28.230Z,9.30
2017-08-23T04:50:55.898Z,11.93
2017-08-23T04:53:23.539Z,10.27
2017-08-23T04:55:51.607Z,11.23
2017-08-23T04:58:19.268Z,9.90
2017-08-23T05:00:46.899Z,12.13
2017-08-23T05:03:14.533Z,10.13
2017-08-23T05:05:42.124Z,9.60
2017-08-23T05:08:09.820Z,8.27
2017-08-23T05:10:37.443Z,9.83
2017-08-23T05:13:05.426Z,12.07
2017-08-23T05:15:33.069Z,12.23
2017-08-23T05:18:00.696Z,13.07
2017-08-23T05:20:28.347Z,11.17
2017-08-23T05:22:56.018Z,9.63
2017-08-23T05:25:23.710Z,12.17
2017-08-23T05:30:25.099Z,9.10
2017-08-23T05:32:52.718Z,8.30
2017-08-23T05:35:20.333Z,8.57
2017-08-23T05:37:47.972Z,9.53
2017-08-23T05:40:15.866Z,9.10
2017-08-23T05:42:43.480Z,7.57
2017-08-23T05:45:11.199Z,9.10
2017-08-23T05:47:38.874Z,7.03
2017-08-23T05:50:06.485Z,8.00
2017-08-23T05:52:34.117Z,8.33
2017-08-23T05:55:01.759Z,7.90
2017-08-23T05:57:29.387Z,7.70
2017-08-23T05:59:57.120Z,7.33
2017-08-23T06:02:24.739Z,7.93
2017-08-23T06:04:52.367Z,8.70
2017-08-23T06:07:20.003Z,9.70
2017-08-23T06:09:47.941Z,10.00
2017-08-23T06:12:19.665Z,8.80
2017-08-23T06:14:47.276Z,7.43
2017-08-23T06:17:14.879Z,8.40
2017-08-23T06:19:42.506Z,7.70
2017-08-23T06:22:10.144Z,8.20
2017-08-23T06:24:37.784Z,8.13
2017-08-23T06:27:09.604Z,8.30
2017-08-23T06:29:37.551Z,10.60
2017-08-23T06:32:05.171Z,9.33
2017-08-23T06:34:32.769Z,9.07
2017-08-23T06:37:00.434Z,9.10
2017-08-23T06:39:28.212Z,9.50
2017-08-23T06:41:55.832Z,9.03
2017-08-23T06:44:23.460Z,9.23
2017-08-23T06:46:51.078Z,9.63
2017-08-23T06:49:21.666Z,9.43
2017-08-23T06:51:49.301Z,9.77
2017-08-23T06:54:16.950Z,12.03
2017-08-23T06:56:45.372Z,9.30
2017-08-23T06:59:13.290Z,7.97
2017-08-23T07:01:40.922Z,10.07
2017-08-23T07:04:08.556Z,8.20
2017-08-23T07:06:36.187Z,6.83
2017-08-23T07:09:03.906Z,6.00
2017-08-23T07:11:31.536Z,4.90
2017-08-23T07:13:59.184Z,4.73
2017-08-23T07:16:27.661Z,4.57
2017-08-23T07:18:55.268Z,4.70
2017-08-23T07:21:24.132Z,3.50
2017-08-23T07:23:51.798Z,3.33
2017-08-23T07:26:19.400Z,3.60
2017-08-23T07:28:47.141Z,3.27
2017-08-23T07:31:14.800Z,3.30
2017-08-23T07:33:42.396Z,3.47
2017-08-23T07:36:10.201Z,3.50
2017-08-23T07:38:37.867Z,4.30
2017-08-23T07:41:05.604Z,4.20
2017-08-23T07:43:33.278Z,4.03
2017-08-23T07:46:00.913Z,3.40
2017-08-23T07:48:28.528Z,3.73
2017-08-23T07:50:56.120Z,3.30
2017-08-23T07:53:24.110Z,3.80
2017-08-23T07:55:51.725Z,5.50
2017-08-23T07:58:19.360Z,4.30
2017-08-23T08:00:46.999Z,4.37
2017-08-23T08:03:14.647Z,4.23
2017-08-23T08:05:42.242Z,4.63
2017-08-23T08:08:09.982Z,4.50
2017-08-23T08:10:37.598Z,4.50
2017-08-23T08:13:05.395Z,4.40
2017-08-23T08:15:33.047Z,3.93
2017-08-23T08:18:00.729Z,5.97
2017-08-23T08:20:28.763Z,3.90
2017-08-23T08:22:56.408Z,4.70
2017-08-23T08:25:24.009Z,4.47
2017-08-23T08:27:51.636Z,4.13
2017-08-23T08:30:19.418Z,4.00
2017-08-23T08:32:47.054Z,4.00
2017-08-23T08:35:14.678Z,4.40
2017-08-23T08:37:42.323Z,5.43
2017-08-23T08:40:09.960Z,4.80
2017-08-23T08:42:37.579Z,4.90
2017-08-23T08:45:05.425Z,4.57
2017-08-23T08:47:33.102Z,4.33
2017-08-23T08:50:00.717Z,4.23
2017-08-23T08:52:28.338Z,4.23
2017-08-23T08:54:55.973Z,4.90
2017-08-23T08:57:23.592Z,4.60
2017-08-23T08:59:51.218Z,4.77
2017-08-23T09:02:18.897Z,3.93
2017-08-23T09:04:46.534Z,4.40
2017-08-23T09:07:14.145Z,4.93
2017-08-23T09:09:41.812Z,5.53
2017-08-23T09:12:09.447Z,4.37
2017-08-23T09:14:37.056Z,4.83
2017-08-23T09:17:04.710Z,5.30
2017-08-23T09:19:32.372Z,4.90
2017-08-23T09:21:59.996Z,4.77
2017-08-23T09:24:27.611Z,5.23
2017-08-23T09:29:29.545Z,4.10
2017-08-23T09:31:57.151Z,4.77
2017-08-23T09:34:24.746Z,4.60
2017-08-23T09:36:52.408Z,4.50
2017-08-23T09:39:20.150Z,4.77
2017-08-23T09:41:47.807Z,4.90
2017-08-23T09:44:15.462Z,5.20
2017-08-23T09:46:43.071Z,4.60
2017-08-23T09:49:10.726Z,5.30
2017-08-23T09:51:38.409Z,4.60
2017-08-23T09:54:06.186Z,5.30
2017-08-23T09:56:33.813Z,4.97
2017-08-23T09:59:01.428Z,4.60
2017-08-23T10:01:29.041Z,4.03
2017-08-23T10:03:56.672Z,5.63
2017-08-23T10:06:24.313Z,4.00
2017-08-23T10:08:51.946Z,3.60
2017-08-23T10:11:19.871Z,4.77
2017-08-23T10:13:47.534Z,5.37
2017-08-23T10:16:15.172Z,4.90
2017-08-23T10:18:42.841Z,4.47
2017-08-23T10:21:10.584Z,4.47
2017-08-23T10:23:40.088Z,4.20
2017-08-23T10:26:07.763Z,4.47
2017-08-23T10:28:35.352Z,4.53
2017-08-23T10:31:02.966Z,4.40
2017-08-23T10:33:30.777Z,5.83
2017-08-23T10:35:59.662Z,5.30
2017-08-23T10:38:27.272Z,4.70
2017-08-23T10:40:54.957Z,5.00
2017-08-23T10:43:22.555Z,5.53
2017-08-23T10:45:50.552Z,4.47
2017-08-23T10:48:18.219Z,4.90
2017-08-23T10:50:45.844Z,5.30
2017-08-23T10:53:13.538Z,4.53
2017-08-23T10:55:41.165Z,4.13
2017-08-23T10:58:08.796Z,5.70
2017-08-23T11:00:37.032Z,5.83
2017-08-23T11:03:04.720Z,4.37
2017-08-23T11:05:32.338Z,4.80
2017-08-23T11:07:59.958Z,4.77
2017-08-23T11:10:27.574Z,4.67
2017-08-23T11:12:55.286Z,5.37
2017-08-23T11:15:22.904Z,4.10
2017-08-23T11:17:50.507Z,5.07
2017-08-23T11:20:18.180Z,4.80
2017-08-23T11:22:50.569Z,4.83
2017-08-23T11:25:18.316Z,4.97
2017-08-23T11:27:45.991Z,4.47
2017-08-23T11:30:14.056Z,5.10
2017-08-23T11:32:41.662Z,5.70
2017-08-23T11:35:09.912Z,4.60
2017-08-23T11:40:11.782Z,4.80
2017-08-23T11:42:39.772Z,4.80
2017-08-23T11:45:07.912Z,4.27
2017-08-23T11:47:35.601Z,4.70
2017-08-23T11:50:03.243Z,4.57
2017-08-23T11:52:30.839Z,5.50
2017-08-23T11:54:58.539Z,5.63
2017-08-23T11:57:26.366Z,4.50
2017-08-23T11:59:53.993Z,5.33
2017-08-23T12:02:21.669Z,5.00
2017-08-23T12:04:49.301Z,5.20
2017-08-23T12:07:16.922Z,5.13
2017-08-23T12:09:44.619Z,4.57
2017-08-23T12:12:12.260Z,4.63
2017-08-23T12:14:39.924Z,5.97
2017-08-23T12:17:07.615Z,4.73
2017-08-23T12:19:35.416Z,4.80
2017-08-23T12:22:03.020Z,5.37
2017-08-23T12:24:30.682Z,6.37
2017-08-23T12:26:58.344Z,4.03
2017-08-23T12:29:26.632Z,4.90
2017-08-23T12:31:54.279Z,4.37
2017-08-23T12:34:22.024Z,4.90
2017-08-23T12:36:49.956Z,5.00
2017-08-23T12:39:17.664Z,4.90
2017-08-23T12:41:45.264Z,5.80
2017-08-23T12:44:12.897Z,5.10
2017-08-23T12:46:40.542Z,4.53
2017-08-23T12:49:08.302Z,5.50
2017-08-23T12:51:36.050Z,5.20
2017-08-23T12:54:04.189Z,5.43
2017-08-23T12:56:31.921Z,4.57
2017-08-23T12:58:59.547Z,4.97
2017-08-23T13:01:27.240Z,5.03
2017-08-23T13:03:54.847Z,4.97
2017-08-23T13:06:24.212Z,4.53
2017-08-23T13:08:51.867Z,4.53
2017-08-23T13:11:19.480Z,4.80
2017-08-23T13:13:47.152Z,4.70
2017-08-23T13:16:14.801Z,4.87
2017-08-23T13:18:42.445Z,4.47
2017-08-23T13:21:10.284Z,4.90
2017-08-23T13:23:37.944Z,4.63
2017-08-23T13:26:05.570Z,5.00
2017-08-23T13:28:33.155Z,5.23
2017-08-23T13:31:00.785Z,5.03
2017-08-23T13:33:28.772Z,5.23
2017-08-23T13:35:56.558Z,4.00
2017-08-23T13:38:24.222Z,4.63
2017-08-23T13:40:51.847Z,4.73
2017-08-23T13:43:19.460Z,4.20
2017-08-23T13:45:47.109Z,5.00
2017-08-23T13:48:14.844Z,4.40
2017-08-23T13:50:42.475Z,5.20
2017-08-23T13:53:10.148Z,4.87
2017-08-23T13:55:37.840Z,4.73
2017-08-23T13:58:05.541Z,4.53
2017-08-23T14:00:33.179Z,4.77
2017-08-23T14:03:00.838Z,6.00
2017-08-23T14:05:32.661Z,3.87
2017-08-23T14:08:01.668Z,5.80
2017-08-23T14:10:29.472Z,5.33
2017-08-23T14:12:57.433Z,5.30
2017-08-23T14:15:25.152Z,5.17
2017-08-23T14:17:52.794Z,4.60
2017-08-23T14:22:54.326Z,4.17
2017-08-23T14:25:26.206Z,4.93
2017-08-23T14:27:53.820Z,4.30
2017-08-23T14:30:22.222Z,4.20
2017-08-23T14:32:49.858Z,3.57
2017-08-23T14:35:17.551Z,4.13
2017-08-23T14:37:45.227Z,3.80
2017-08-23T14:40:12.857Z,3.60
2017-08-23T14:42:40.455Z,3.57
2017-08-23T14:45:08.204Z,4.43
2017-08-23T14:47:36.916Z,4.17
2017-08-23T14:50:06.319Z,4.40
2017-08-23T14:52:34.007Z,4.03
2017-08-23T14:55:01.616Z,3.40
2017-08-23T14:57:29.499Z,4.67
2017-08-23T14:59:57.168Z,3.60
2017-08-23T15:02:24.755Z,4.63
2017-08-23T15:04:52.358Z,3.63
2017-08-23T15:07:19.985Z,3.57
2017-08-23T15:09:47.591Z,4.00
2017-08-23T15:12:15.241Z,4.00
2017-08-23T15:14:42.904Z,4.10
2017-08-23T15:17:10.572Z,3.50
2017-08-23T15:19:38.298Z,3.83
2017-08-23T15:22:05.962Z,3.57
2017-08-23T15:24:33.568Z,4.63
2017-08-23T15:27:01.175Z,3.87
2017-08-23T15:29:36.554Z,4.50
2017-08-23T15:32:04.356Z,4.23
2017-08-23T15:34:32.043Z,3.37
2017-08-23T15:36:59.678Z,3.93
2017-08-23T15:39:27.303Z,4.13
2017-08-23T15:41:54.979Z,3.53
2017-08-23T15:44:22.600Z,3.70
2017-08-23T15:46:50.222Z,3.83
2017-08-23T15:49:17.856Z,4.30
2017-08-23T15:51:45.445Z,3.50
2017-08-23T15:54:13.104Z,4.20
2017-08-23T15:56:40.740Z,4.00
2017-08-23T15:59:08.415Z,3.90
2017-08-23T16:01:36.051Z,5.43
2017-08-23T16:04:03.824Z,4.20
2017-08-23T16:06:31.459Z,3.80
2017-08-23T16:08:59.348Z,3.93
2017-08-23T16:11:27.112Z,3.80
2017-08-23T16:13:55.660Z,4.87
2017-08-23T16:16:24.378Z,5.10
2017-08-23T16:18:52.008Z,4.63
2017-08-23T16:21:19.767Z,4.93
2017-08-23T16:23:47.453Z,4.60
2017-08-23T16:26:15.178Z,4.30
2017-08-23T16:28:42.812Z,4.87
2017-08-23T16:31:10.650Z,5.77
2017-08-23T16:33:39.389Z,4.20
2017-08-23T16:36:07.079Z,3.80
2017-08-23T16:38:34.740Z,4.30
2017-08-23T16:41:02.344Z,4.33
2017-08-23T16:43:29.989Z,4.23
2017-08-23T16:45:57.653Z,4.60
2017-08-23T16:48:25.374Z,5.90
2017-08-23T16:50:53.025Z,6.90
2017-08-23T16:53:21.003Z,11.90
2017-08-23T16:55:49.029Z,6.60
2017-08-23T16:58:16.710Z,4.47
2017-08-23T17:00:44.882Z,5.20
2017-08-23T17:03:12.584Z,4.10
2017-08-23T17:05:40.276Z,4.60
2017-08-23T17:10:39.916Z,4.80
2017-08-23T17:13:07.680Z,16.63
2017-08-23T17:15:35.569Z,5.77
2017-08-23T17:18:03.717Z,4.90
2017-08-23T17:20:31.591Z,4.63
2017-08-23T17:22:59.295Z,5.00
2017-08-23T17:25:27.019Z,5.50
2017-08-23T17:27:55.529Z,4.93
2017-08-23T17:30:23.156Z,5.40
2017-08-23T17:32:51.020Z,4.67
2017-08-23T17:35:24.384Z,4.70
2017-08-23T17:37:52.984Z,5.40
2017-08-23T17:40:21.752Z,5.10
2017-08-23T17:43:03.926Z,5.30
2017-08-23T17:45:34.652Z,6.67
2017-08-23T17:48:02.586Z,6.27
2017-08-23T17:50:30.314Z,5.30
2017-08-23T17:52:59.078Z,5.07
2017-08-23T17:55:27.016Z,4.93
2017-08-23T17:57:55.012Z,5.53
2017-08-23T18:00:22.948Z,5.57
2017-08-23T18:02:51.586Z,5.50
2017-08-23T18:05:19.285Z,5.07
2017-08-23T18:07:46.991Z,5.53
2017-08-23T18:10:14.681Z,6.60
2017-08-23T18:12:42.315Z,5.63
2017-08-23T18:15:10.228Z,6.20
2017-08-23T18:17:39.352Z,5.87
2017-08-23T18:20:06.988Z,6.40
2017-08-23T18:22:34.652Z,5.57
2017-08-23T18:25:02.458Z,6.40
2017-08-23T18:27:30.352Z,5.37
2017-08-23T18:29:58.397Z,5.97
2017-08-23T18:32:26.640Z,5.50
2017-08-23T18:34:54.280Z,5.87
2017-08-23T18:37:21.934Z,5.50
2017-08-23T18:39:49.587Z,6.20
2017-08-23T18:42:17.248Z,6.00
2017-08-23T18:44:44.893Z,6.27
2017-08-23T18:47:12.741Z,5.80
2017-08-23T18:49:40.408Z,5.83
2017-08-23T18:52:08.073Z,6.30
2017-08-23T18:54:36.232Z,6.67
2017-08-23T18:57:03.906Z,5.33
2017-08-23T18:59:31.748Z,5.83
2017-08-23T19:01:59.360Z,6.00
2017-08-23T19:04:27.030Z,5.23
2017-08-23T19:06:54.693Z,5.97
2017-08-23T19:09:22.319Z,6.13
2017-08-23T19:11:50.000Z,7.17
2017-08-23T19:14:17.632Z,6.53
2017-08-23T19:16:45.272Z,7.60
2017-08-23T19:19:13.196Z,6.60
2017-08-23T19:21:40.927Z,7.10
2017-08-23T19:24:08.797Z,6.63
2017-08-23T19:26:36.497Z,7.17
2017-08-23T19:29:04.141Z,7.27
2017-08-23T19:31:31.918Z,6.77
2017-08-23T19:33:59.604Z,6.10
2017-08-23T19:36:27.286Z,6.20
2017-08-23T19:38:54.987Z,6.70
2017-08-23T19:41:22.954Z,6.40
2017-08-23T19:43:50.648Z,7.17
2017-08-23T19:46:20.010Z,7.30
2017-08-23T19:48:47.713Z,7.47
2017-08-23T19:51:15.745Z,6.27
2017-08-23T19:53:43.409Z,6.93
2017-08-23T19:56:11.133Z,6.90
2017-08-23T19:58:38.779Z,6.50
2017-08-23T20:01:06.486Z,6.67
2017-08-23T20:03:34.116Z,6.93
2017-08-23T20:06:01.812Z,7.17
2017-08-23T20:08:29.578Z,7.40
2017-08-23T20:10:57.236Z,6.57
2017-08-23T20:13:27.286Z,7.00
2017-08-23T20:15:54.988Z,8.70
2017-08-23T20:18:25.209Z,6.63
2017-08-23T20:20:54.797Z,6.50
2017-08-23T20:23:23.552Z,5.97
2017-08-23T20:25:51.246Z,7.30
2017-08-23T20:28:19.077Z,7.20
2017-08-23T20:30:46.779Z,6.37
2017-08-23T20:33:14.450Z,6.97
2017-08-23T20:35:42.157Z,6.40
2017-08-23T20:38:10.003Z,6.73
2017-08-23T20:40:37.695Z,7.87
2017-08-23T20:43:05.394Z,6.57
2017-08-23T20:45:34.806Z,6.33
2017-08-23T20:48:03.315Z,7.10
2017-08-23T20:50:31.206Z,7.53
2017-08-23T20:52:59.078Z,7.30
2017-08-23T20:55:26.791Z,10.37
2017-08-23T20:57:56.909Z,10.00
2017-08-23T21:00:24.645Z,8.43
2017-08-23T21:02:52.332Z,8.90
2017-08-23T21:05:20.249Z,7.30
2017-08-23T21:07:47.917Z,8.57
2017-08-23T21:10:15.905Z,9.27
2017-08-23T21:12:43.579Z,7.90
2017-08-23T21:15:11.946Z,8.00
2017-08-23T21:17:39.778Z,9.27
2017-08-23T21:20:07.663Z,8.40
2017-08-23T21:22:35.326Z,9.27
2017-08-23T21:25:07.215Z,7.93
2017-08-23T21:27:35.093Z,7.67
2017-08-23T21:30:02.846Z,9.10
2017-08-23T21:32:30.600Z,7.20
2017-08-23T21:34:58.225Z,7.33
2017-08-23T21:37:26.258Z,7.07
2017-08-23T21:39:54.900Z,7.30
2017-08-23T21:42:22.533Z,8.20
2017-08-23T21:44:50.162Z,8.30
2017-08-23T21:47:18.263Z,13.43
2017-08-23T21:49:46.010Z,8.90
2017-08-23T21:52:13.660Z,9.27
2017-08-23T21:54:41.350Z,8.27
2017-08-23T21:57:09.358Z,7.40
2017-08-23T21:59:37.064Z,8.20
2017-08-23T22:02:06.313Z,7.67
2017-08-23T22:04:33.969Z,8.23
2017-08-23T22:07:07.545Z,8.40
2017-08-23T22:09:35.274Z,7.87
2017-08-23T22:12:03.047Z,7.80
2017-08-23T22:14:33.045Z,7.97
2017-08-23T22:17:00.714Z,7.40
2017-08-23T22:19:28.950Z,6.77
2017-08-23T22:21:56.621Z,7.67
2017-08-23T22:24:24.291Z,8.90
2017-08-23T22:26:51.925Z,7.53
2017-08-23T22:29:19.793Z,7.93
2017-08-23T22:31:47.485Z,8.33
2017-08-23T22:34:15.151Z,9.10
2017-08-23T22:36:43.642Z,9.43
2017-08-23T22:39:13.730Z,10.00
2017-08-23T22:41:44.958Z,9.23
2017-08-23T22:44:12.774Z,9.20
2017-08-23T22:46:40.506Z,8.60
2017-08-23T22:49:08.764Z,8.33
2017-08-23T22:51:36.904Z,8.60
2017-08-23T22:54:04.730Z,9.37
2017-08-23T22:56:32.482Z,9.13
2017-08-23T22:59:02.676Z,7.30
2017-08-23T23:01:30.444Z,7.43
2017-08-23T23:03:58.113Z,7.63
2017-08-23T23:06:25.783Z,8.20
2017-08-23T23:08:53.524Z,8.50
2017-08-23T23:11:21.384Z,8.27
2017-08-23T23:13:49.181Z,9.50
2017-08-23T23:16:17.129Z,8.20
2017-08-23T23:18:44.813Z,7.27
2017-08-23T23:21:13.025Z,8.40
2017-08-23T23:23:40.684Z,8.10
2017-08-23T23:26:08.345Z,8.50
2017-08-23T23:28:36.055Z,6.90
2017-08-23T23:31:03.752Z,7.53
2017-08-23T23:33:31.468Z,8.13
2017-08-23T23:35:59.157Z,7.73
2017-08-23T23:38:26.791Z,7.97
2017-08-23T23:40:54.443Z,7.30
2017-08-23T23:43:22.118Z,8.33
2017-08-23T23:45:50.077Z,8.80
2017-08-23T23:48:17.754Z,8.20
2017-08-23T23:50:45.456Z,7.53
2017-08-23T23:53:13.356Z,11.07
2017-08-23T23:55:41.000Z,7.27
2017-08-23T23:58:08.643Z,8.77
